createdAt,value
2016-12-02T00:00:39.128Z,69
2016-12-02T00:01:45.140Z,69
2016-12-02T00:02:51.139Z,69
2016-12-02T00:03:57.134Z,69
2016-12-02T00:05:03.132Z,69
2016-12-02T00:06:09.127Z,69
2016-12-02T00:07:15.128Z,69
2016-12-02T00:08:21.120Z,69
2016-12-02T00:09:27.116Z,69
2016-12-02T00:10:33.123Z,69
2016-12-02T00:11:39.115Z,69
2016-12-02T00:12:45.125Z,69
2016-12-02T00:13:51.118Z,68
2016-12-02T00:14:57.118Z,68
2016-12-02T00:16:03.117Z,68
2016-12-02T00:18:19.248Z,68
2016-12-02T00:19:25.243Z,68
2016-12-02T00:20:31.238Z,68
2016-12-02T00:21:37.240Z,67
2016-12-02T00:22:43.237Z,67
2016-12-02T00:23:49.241Z,67
2016-12-02T00:24:55.236Z,66
2016-12-02T00:26:01.233Z,66
2016-12-02T00:27:07.235Z,66
2016-12-02T00:28:13.232Z,66
2016-12-02T00:29:19.245Z,66
2016-12-02T00:30:25.230Z,66
2016-12-02T00:31:31.230Z,66
2016-12-02T00:32:37.226Z,66
2016-12-02T00:33:43.218Z,65
2016-12-02T00:34:49.223Z,65
2016-12-02T00:35:55.223Z,65
2016-12-02T00:37:01.213Z,65
2016-12-02T00:38:07.221Z,65
2016-12-02T00:39:13.225Z,65
2016-12-02T00:40:19.220Z,65
2016-12-02T00:41:25.215Z,65
2016-12-02T00:42:31.215Z,64
2016-12-02T00:43:37.209Z,64
2016-12-02T00:44:43.206Z,63
2016-12-02T00:45:49.210Z,63
2016-12-02T00:46:55.201Z,62
2016-12-02T00:48:01.207Z,61
2016-12-02T00:49:07.203Z,60
2016-12-02T00:50:13.204Z,60
2016-12-02T00:51:19.201Z,60
2016-12-02T00:52:25.206Z,59
2016-12-02T00:53:31.205Z,59
2016-12-02T00:54:37.203Z,58
2016-12-02T00:55:43.213Z,59
2016-12-02T00:56:49.216Z,59
2016-12-02T00:57:55.217Z,59
2016-12-02T00:59:01.211Z,59
2016-12-02T01:00:07.214Z,59
2016-12-02T01:01:13.208Z,59
2016-12-02T01:02:19.208Z,59
2016-12-02T01:03:25.202Z,59
2016-12-02T01:04:31.213Z,59
2016-12-02T01:05:37.207Z,59
2016-12-02T01:06:43.201Z,60
2016-12-02T01:07:49.204Z,60
2016-12-02T01:08:55.200Z,60
2016-12-02T01:10:01.199Z,60
2016-12-02T01:11:07.187Z,61
2016-12-02T01:12:13.189Z,61
2016-12-02T01:13:19.190Z,61
2016-12-02T01:14:25.190Z,60
2016-12-02T01:15:31.183Z,61
2016-12-02T01:16:37.190Z,60
2016-12-02T01:17:43.187Z,61
2016-12-02T01:18:49.187Z,61
2016-12-02T01:19:55.178Z,60
2016-12-02T01:21:00.432Z,60
2016-12-02T01:22:06.428Z,60
2016-12-02T01:23:12.427Z,59
2016-12-02T01:24:18.436Z,58
2016-12-02T01:25:24.437Z,58
2016-12-02T01:26:30.432Z,58
2016-12-02T01:27:36.429Z,58
2016-12-02T01:28:42.436Z,58
2016-12-02T01:29:48.428Z,57
2016-12-02T01:30:54.431Z,57
2016-12-02T01:32:00.437Z,57
2016-12-02T01:33:06.440Z,58
2016-12-02T01:34:12.430Z,58
2016-12-02T01:35:18.429Z,58
2016-12-02T01:36:24.432Z,58
2016-12-02T01:37:30.430Z,58
2016-12-02T01:38:36.431Z,58
2016-12-02T01:39:42.430Z,58
2016-12-02T01:40:48.426Z,58
2016-12-02T01:41:54.426Z,57
2016-12-02T01:43:00.431Z,57
2016-12-02T01:44:06.430Z,57
2016-12-02T01:45:12.429Z,57
2016-12-02T01:46:18.431Z,57
2016-12-02T01:47:24.436Z,57
2016-12-02T01:48:30.433Z,57
2016-12-02T01:49:36.422Z,57
2016-12-02T01:50:42.634Z,57
2016-12-02T01:51:48.636Z,57
2016-12-02T01:54:04.758Z,57
2016-12-02T01:55:10.757Z,57
2016-12-02T01:56:16.752Z,57
2016-12-02T01:57:22.753Z,57
2016-12-02T01:58:28.754Z,57
2016-12-02T01:59:34.755Z,57
2016-12-02T02:00:40.748Z,57
2016-12-02T02:01:46.746Z,57
2016-12-02T02:02:52.751Z,57
2016-12-02T02:03:58.950Z,57
2016-12-02T02:05:04.948Z,57
2016-12-02T02:06:10.949Z,57
2016-12-02T02:07:16.943Z,57
2016-12-02T02:08:22.939Z,57
2016-12-02T02:09:28.934Z,57
2016-12-02T02:10:34.934Z,57
2016-12-02T02:11:40.927Z,57
2016-12-02T02:12:46.924Z,57
2016-12-02T02:13:52.933Z,57
2016-12-02T02:14:58.934Z,57
2016-12-02T02:16:04.942Z,57
2016-12-02T02:17:10.933Z,57
2016-12-02T02:18:16.919Z,57
2016-12-02T02:19:22.920Z,57
2016-12-02T02:20:28.914Z,57
2016-12-02T02:21:34.915Z,57
2016-12-02T02:22:40.907Z,57
2016-12-02T02:23:46.912Z,57
2016-12-02T02:24:52.909Z,57
2016-12-02T02:25:58.910Z,57
2016-12-02T02:27:04.907Z,57
2016-12-02T02:28:10.916Z,57
2016-12-02T02:29:16.166Z,57
2016-12-02T02:30:22.168Z,57
2016-12-02T02:31:28.165Z,57
2016-12-02T02:32:34.172Z,57
2016-12-02T02:33:40.167Z,57
2016-12-02T02:35:54.872Z,57
2016-12-02T02:37:00.874Z,57
2016-12-02T02:38:06.961Z,57
2016-12-02T02:39:12.968Z,57
2016-12-02T02:40:18.969Z,57
2016-12-02T02:41:24.969Z,57
2016-12-02T02:42:30.961Z,57
2016-12-02T02:43:36.958Z,57
2016-12-02T02:44:42.962Z,57
2016-12-02T02:45:48.957Z,57
2016-12-02T02:46:54.953Z,57
2016-12-02T02:48:00.951Z,58
2016-12-02T02:49:06.950Z,58
2016-12-02T02:50:12.945Z,58
2016-12-02T02:51:18.943Z,58
2016-12-02T02:52:24.945Z,58
2016-12-02T02:53:30.939Z,58
2016-12-02T02:54:36.934Z,58
2016-12-02T02:55:42.942Z,58
2016-12-02T02:56:48.943Z,58
2016-12-02T02:57:54.937Z,58
2016-12-02T02:59:00.937Z,58
2016-12-02T03:00:06.929Z,58
2016-12-02T03:01:12.930Z,58
2016-12-02T03:02:17.821Z,58
2016-12-02T03:03:23.830Z,58
2016-12-02T03:04:29.817Z,58
2016-12-02T03:05:35.823Z,58
2016-12-02T03:06:41.826Z,58
2016-12-02T03:07:47.819Z,58
2016-12-02T03:08:53.807Z,58
2016-12-02T03:09:59.814Z,58
2016-12-02T03:11:05.806Z,58
2016-12-02T03:12:11.806Z,58
2016-12-02T03:13:17.806Z,58
2016-12-02T03:14:23.813Z,58
2016-12-02T03:15:29.808Z,58
2016-12-02T03:16:35.807Z,58
2016-12-02T03:17:41.816Z,58
2016-12-02T03:18:47.812Z,58
2016-12-02T03:19:53.807Z,58
2016-12-02T03:20:59.802Z,58
2016-12-02T03:22:05.813Z,58
2016-12-02T03:23:11.807Z,58
2016-12-02T03:24:17.805Z,58
2016-12-02T03:25:23.808Z,58
2016-12-02T03:26:29.811Z,58
2016-12-02T03:27:35.804Z,58
2016-12-02T03:29:49.611Z,58
2016-12-02T03:30:55.608Z,58
2016-12-02T03:32:01.601Z,58
2016-12-02T03:33:07.608Z,58
2016-12-02T03:34:13.609Z,58
2016-12-02T03:35:19.613Z,58
2016-12-02T03:36:25.605Z,58
2016-12-02T03:37:31.605Z,58
2016-12-02T03:38:37.605Z,58
2016-12-02T03:39:43.603Z,58
2016-12-02T03:40:49.601Z,58
2016-12-02T03:41:55.603Z,58
2016-12-02T03:43:01.599Z,58
2016-12-02T03:44:07.594Z,58
2016-12-02T03:45:13.590Z,58
2016-12-02T03:46:19.589Z,58
2016-12-02T03:47:25.584Z,58
2016-12-02T03:49:41.703Z,58
2016-12-02T03:50:47.699Z,58
2016-12-02T03:51:53.694Z,58
2016-12-02T03:52:59.693Z,58
2016-12-02T03:54:05.692Z,58
2016-12-02T03:55:11.693Z,58
2016-12-02T03:56:17.684Z,58
2016-12-02T03:57:23.682Z,58
2016-12-02T03:58:29.685Z,58
2016-12-02T03:59:35.690Z,58
2016-12-02T04:00:41.681Z,58
2016-12-02T04:01:47.684Z,58
2016-12-02T04:02:53.684Z,58
2016-12-02T04:06:19.907Z,58
2016-12-02T04:07:25.902Z,58
2016-12-02T04:08:31.895Z,58
2016-12-02T04:09:37.894Z,58
2016-12-02T04:10:43.892Z,58
2016-12-02T04:11:49.895Z,58
2016-12-02T04:12:55.142Z,58
2016-12-02T04:14:01.140Z,58
2016-12-02T04:15:07.142Z,58
2016-12-02T04:16:13.140Z,58
2016-12-02T04:18:26.744Z,58
2016-12-02T04:19:32.746Z,57
2016-12-02T04:20:38.739Z,58
2016-12-02T04:21:44.744Z,57
2016-12-02T04:22:50.745Z,57
2016-12-02T04:23:56.749Z,57
2016-12-02T04:25:02.743Z,57
2016-12-02T04:26:08.740Z,57
2016-12-02T04:27:14.743Z,57
2016-12-02T04:28:20.738Z,57
2016-12-02T04:29:26.735Z,57
2016-12-02T04:30:32.737Z,57
2016-12-02T04:31:38.733Z,57
2016-12-02T04:32:44.728Z,57
2016-12-02T04:33:50.726Z,57
2016-12-02T04:34:56.729Z,57
2016-12-02T04:36:02.721Z,57
2016-12-02T04:37:08.717Z,57
2016-12-02T04:38:14.925Z,57
2016-12-02T04:39:20.940Z,57
2016-12-02T04:40:26.926Z,57
2016-12-02T04:41:32.926Z,57
2016-12-02T04:42:38.925Z,57
2016-12-02T04:43:44.921Z,57
2016-12-02T04:44:51.117Z,57
2016-12-02T04:45:57.118Z,57
2016-12-02T04:47:09.486Z,57
2016-12-02T04:48:15.486Z,57
2016-12-02T04:49:21.479Z,57
2016-12-02T04:50:27.484Z,57
2016-12-02T04:51:33.482Z,57
2016-12-02T04:52:39.485Z,57
2016-12-02T04:53:45.479Z,57
2016-12-02T04:54:51.476Z,57
2016-12-02T04:55:57.480Z,57
2016-12-02T04:57:03.479Z,57
2016-12-02T04:58:09.477Z,57
2016-12-02T04:59:15.478Z,57
2016-12-02T05:00:21.477Z,58
2016-12-02T05:01:27.474Z,58
2016-12-02T05:02:33.479Z,57
2016-12-02T05:03:38.732Z,57
2016-12-02T05:04:44.725Z,58
2016-12-02T05:05:50.721Z,58
2016-12-02T05:06:56.729Z,58
2016-12-02T05:08:02.731Z,58
2016-12-02T05:09:08.727Z,58
2016-12-02T05:10:14.724Z,58
2016-12-02T05:11:20.717Z,58
2016-12-02T05:12:26.713Z,58
2016-12-02T05:13:32.711Z,58
2016-12-02T05:14:38.717Z,59
2016-12-02T05:15:44.705Z,59
2016-12-02T05:16:50.716Z,59
2016-12-02T05:17:56.708Z,58
2016-12-02T05:19:02.707Z,58
2016-12-02T05:20:08.699Z,58
2016-12-02T05:21:14.704Z,58
2016-12-02T05:22:20.700Z,58
2016-12-02T05:23:26.699Z,58
2016-12-02T05:24:32.703Z,58
2016-12-02T05:25:38.712Z,58
2016-12-02T05:26:44.705Z,58
2016-12-02T05:27:50.703Z,58
2016-12-02T05:28:56.711Z,58
2016-12-02T05:30:02.714Z,58
2016-12-02T05:31:08.703Z,59
2016-12-02T05:32:14.704Z,59
2016-12-02T05:33:20.713Z,59
2016-12-02T05:34:26.709Z,59
2016-12-02T05:35:32.708Z,59
2016-12-02T05:36:38.710Z,59
2016-12-02T05:37:44.709Z,59
2016-12-02T05:38:50.706Z,59
2016-12-02T05:39:56.690Z,59
2016-12-02T05:41:02.695Z,59
2016-12-02T05:42:08.699Z,59
2016-12-02T05:43:14.701Z,59
2016-12-02T05:44:20.695Z,59
2016-12-02T05:45:26.704Z,59
2016-12-02T05:46:32.702Z,59
2016-12-02T05:47:38.700Z,59
2016-12-02T05:48:44.689Z,59
2016-12-02T05:49:50.692Z,59
2016-12-02T05:50:56.691Z,59
2016-12-02T05:52:02.687Z,59
2016-12-02T05:53:08.695Z,59
2016-12-02T05:54:14.702Z,59
2016-12-02T05:55:20.696Z,59
2016-12-02T05:56:26.690Z,59
2016-12-02T05:57:40.151Z,59
2016-12-02T05:58:46.153Z,59
2016-12-02T05:59:52.145Z,59
2016-12-02T06:00:58.146Z,59
2016-12-02T06:02:04.146Z,59
2016-12-02T06:03:10.148Z,59
2016-12-02T06:04:16.141Z,59
2016-12-02T06:05:22.139Z,59
2016-12-02T06:06:28.142Z,59
2016-12-02T06:07:34.136Z,59
2016-12-02T06:08:40.135Z,59
2016-12-02T06:09:46.140Z,59
2016-12-02T06:10:52.143Z,59
2016-12-02T06:11:58.138Z,59
2016-12-02T06:13:04.133Z,59
2016-12-02T06:14:10.137Z,59
2016-12-02T06:15:16.131Z,59
2016-12-02T06:16:22.128Z,59
2016-12-02T06:17:28.136Z,59
2016-12-02T06:18:34.139Z,59
2016-12-02T06:19:40.137Z,59
2016-12-02T06:20:46.134Z,59
2016-12-02T06:21:52.133Z,59
2016-12-02T06:22:58.129Z,59
2016-12-02T06:24:04.126Z,59
2016-12-02T06:25:17.587Z,59
2016-12-02T06:26:23.582Z,59
2016-12-02T06:27:29.576Z,59
2016-12-02T06:28:35.583Z,59
2016-12-02T06:29:41.584Z,59
2016-12-02T06:30:47.587Z,59
2016-12-02T06:31:53.582Z,59
2016-12-02T06:32:59.582Z,59
2016-12-02T06:34:05.585Z,59
2016-12-02T06:35:11.582Z,59
2016-12-02T06:36:17.580Z,59
2016-12-02T06:37:23.581Z,59
2016-12-02T06:38:29.579Z,59
2016-12-02T06:39:35.574Z,59
2016-12-02T06:40:41.573Z,59
2016-12-02T06:41:47.578Z,59
2016-12-02T06:42:53.571Z,59
2016-12-02T06:43:59.573Z,59
2016-12-02T06:45:05.780Z,60
2016-12-02T06:46:11.779Z,60
2016-12-02T06:47:17.775Z,60
2016-12-02T06:48:23.771Z,60
2016-12-02T06:49:29.766Z,60
2016-12-02T06:50:35.764Z,60
2016-12-02T06:51:41.759Z,60
2016-12-02T06:52:47.772Z,59
2016-12-02T06:53:53.761Z,59
2016-12-02T06:54:59.766Z,60
2016-12-02T06:56:05.766Z,60
2016-12-02T06:57:11.763Z,60
2016-12-02T06:58:17.754Z,60
2016-12-02T06:59:23.759Z,61
2016-12-02T07:00:29.756Z,61
2016-12-02T07:01:35.754Z,61
2016-12-02T07:02:41.755Z,61
2016-12-02T07:03:47.766Z,61
2016-12-02T07:04:53.762Z,61
2016-12-02T07:05:59.759Z,62
2016-12-02T07:07:05.767Z,62
2016-12-02T07:08:11.764Z,63
2016-12-02T07:09:17.756Z,64
2016-12-02T07:10:23.751Z,64
2016-12-02T07:11:29.759Z,64
2016-12-02T07:12:35.755Z,65
2016-12-02T07:13:41.752Z,65
2016-12-02T07:14:47.757Z,65
2016-12-02T07:15:53.765Z,65
2016-12-02T07:16:59.756Z,65
2016-12-02T07:19:14.450Z,65
2016-12-02T07:20:20.449Z,65
2016-12-02T07:21:26.440Z,65
2016-12-02T07:22:32.444Z,65
2016-12-02T07:23:38.447Z,66
2016-12-02T07:24:44.445Z,66
2016-12-02T07:25:50.438Z,66
2016-12-02T07:26:56.435Z,66
2016-12-02T07:28:02.439Z,66
2016-12-02T07:29:08.434Z,66
2016-12-02T07:30:14.438Z,66
2016-12-02T07:31:20.435Z,66
2016-12-02T07:32:26.432Z,66
2016-12-02T07:33:32.431Z,66
2016-12-02T07:34:38.424Z,67
2016-12-02T07:35:44.427Z,67
2016-12-02T07:36:50.424Z,67
2016-12-02T07:37:56.419Z,67
2016-12-02T07:39:02.427Z,67
2016-12-02T07:40:08.428Z,67
2016-12-02T07:41:14.420Z,67
2016-12-02T07:42:20.417Z,67
2016-12-02T07:43:26.422Z,67
2016-12-02T07:44:32.419Z,67
2016-12-02T07:45:38.411Z,67
2016-12-02T07:46:44.414Z,66
2016-12-02T07:47:50.405Z,66
2016-12-02T07:48:56.414Z,66
2016-12-02T07:50:02.410Z,66
2016-12-02T07:51:08.411Z,66
2016-12-02T07:52:14.402Z,66
2016-12-02T07:53:20.406Z,66
2016-12-02T07:54:26.405Z,66
2016-12-02T07:55:32.402Z,66
2016-12-02T07:56:38.401Z,66
2016-12-02T07:57:44.410Z,66
2016-12-02T07:58:50.402Z,66
2016-12-02T07:59:56.400Z,66
2016-12-02T08:01:02.408Z,66
2016-12-02T08:02:08.401Z,66
2016-12-02T08:03:14.397Z,66
2016-12-02T08:04:20.396Z,66
2016-12-02T08:05:26.404Z,66
2016-12-02T08:06:32.396Z,66
2016-12-02T08:07:38.386Z,66
2016-12-02T08:08:44.389Z,66
2016-12-02T08:09:50.389Z,66
2016-12-02T08:10:56.386Z,66
2016-12-02T08:13:12.494Z,66
2016-12-02T08:14:18.489Z,66
2016-12-02T08:15:24.479Z,66
2016-12-02T08:16:30.485Z,66
2016-12-02T08:17:36.490Z,66
2016-12-02T08:18:42.491Z,66
2016-12-02T08:19:48.485Z,66
2016-12-02T08:20:54.484Z,66
2016-12-02T08:22:00.492Z,66
2016-12-02T08:23:06.482Z,66
2016-12-02T08:24:12.487Z,66
2016-12-02T08:25:18.483Z,66
2016-12-02T08:26:24.481Z,66
2016-12-02T08:27:30.485Z,66
2016-12-02T08:28:36.478Z,66
2016-12-02T08:29:42.480Z,65
2016-12-02T08:30:48.487Z,65
2016-12-02T08:31:54.473Z,65
2016-12-02T08:33:00.486Z,65
2016-12-02T08:34:06.481Z,65
2016-12-02T08:35:12.483Z,64
2016-12-02T08:36:18.483Z,63
2016-12-02T08:37:24.480Z,63
2016-12-02T08:38:30.470Z,62
2016-12-02T08:39:36.470Z,62
2016-12-02T08:40:42.468Z,61
2016-12-02T08:41:48.464Z,60
2016-12-02T08:42:54.481Z,60
2016-12-02T08:44:00.479Z,60
2016-12-02T08:45:06.487Z,60
2016-12-02T08:46:12.470Z,60
2016-12-02T08:47:18.477Z,60
2016-12-02T08:48:24.472Z,60
2016-12-02T08:49:30.468Z,60
2016-12-02T08:50:36.471Z,60
2016-12-02T08:51:42.483Z,59
2016-12-02T08:52:48.476Z,59
2016-12-02T08:53:54.475Z,59
2016-12-02T08:55:00.477Z,59
2016-12-02T08:56:06.474Z,58
2016-12-02T08:57:12.470Z,58
2016-12-02T08:58:18.464Z,58
2016-12-02T08:59:24.474Z,58
2016-12-02T09:00:30.470Z,57
2016-12-02T09:01:36.465Z,57
2016-12-02T09:02:42.466Z,57
2016-12-02T09:03:48.464Z,58
2016-12-02T09:04:54.459Z,58
2016-12-02T09:06:00.448Z,57
2016-12-02T09:08:15.159Z,57
2016-12-02T09:09:21.159Z,57
2016-12-02T09:10:27.151Z,57
2016-12-02T09:11:33.159Z,56
2016-12-02T09:12:39.160Z,57
2016-12-02T09:13:45.164Z,56
2016-12-02T09:14:51.160Z,56
2016-12-02T09:15:57.157Z,56
2016-12-02T09:17:03.161Z,56
2016-12-02T09:18:09.158Z,56
2016-12-02T09:19:15.160Z,56
2016-12-02T09:20:21.225Z,56
2016-12-02T09:21:27.219Z,56
2016-12-02T09:22:33.214Z,56
2016-12-02T09:23:39.211Z,56
2016-12-02T09:24:45.210Z,56
2016-12-02T09:25:51.208Z,56
2016-12-02T09:26:57.204Z,56
2016-12-02T09:28:03.212Z,55
2016-12-02T09:29:09.212Z,55
2016-12-02T09:30:15.209Z,55
2016-12-02T09:31:21.208Z,55
2016-12-02T09:32:27.206Z,55
2016-12-02T09:33:33.201Z,54
2016-12-02T09:34:39.199Z,54
2016-12-02T09:35:45.201Z,53
2016-12-02T09:36:51.193Z,53
2016-12-02T09:37:57.206Z,53
2016-12-02T09:39:03.204Z,53
2016-12-02T09:40:09.208Z,52
2016-12-02T09:41:15.198Z,53
2016-12-02T09:42:21.203Z,52
2016-12-02T09:43:27.203Z,52
2016-12-02T09:44:33.198Z,52
2016-12-02T09:45:39.201Z,52
2016-12-02T09:46:45.289Z,52
2016-12-02T09:47:51.273Z,52
2016-12-02T09:48:57.273Z,52
2016-12-02T09:50:03.285Z,52
2016-12-02T09:51:09.281Z,52
2016-12-02T09:52:15.276Z,52
2016-12-02T09:53:21.273Z,52
2016-12-02T09:54:27.284Z,52
2016-12-02T09:55:33.278Z,52
2016-12-02T09:56:39.268Z,52
2016-12-02T09:57:50.661Z,52
2016-12-02T10:00:05.384Z,51
2016-12-02T10:01:11.384Z,52
2016-12-02T10:02:17.378Z,51
2016-12-02T10:03:23.379Z,51
2016-12-02T10:04:29.377Z,50
2016-12-02T10:05:35.382Z,50
2016-12-02T10:06:41.375Z,50
2016-12-02T10:08:54.998Z,50
2016-12-02T10:10:00.998Z,50
2016-12-02T10:11:07.088Z,50
2016-12-02T10:12:13.091Z,50
2016-12-02T10:13:19.090Z,50
2016-12-02T10:14:25.094Z,49
2016-12-02T10:15:31.089Z,49
2016-12-02T10:16:37.087Z,49
2016-12-02T10:17:43.089Z,49
2016-12-02T10:18:49.087Z,49
2016-12-02T10:19:55.084Z,49
2016-12-02T10:21:01.084Z,48
2016-12-02T10:22:07.285Z,48
2016-12-02T10:23:13.283Z,49
2016-12-02T10:24:19.276Z,49
2016-12-02T10:25:25.278Z,48
2016-12-02T10:26:31.273Z,48
2016-12-02T10:27:37.267Z,48
2016-12-02T10:28:43.277Z,48
2016-12-02T10:29:49.280Z,48
2016-12-02T10:30:55.275Z,48
2016-12-02T10:32:01.276Z,47
2016-12-02T10:33:07.273Z,47
2016-12-02T10:34:13.272Z,47
2016-12-02T10:36:29.413Z,45
2016-12-02T10:37:35.409Z,45
2016-12-02T10:38:41.405Z,46
2016-12-02T10:39:47.410Z,46
2016-12-02T10:40:53.411Z,45
2016-12-02T10:41:59.416Z,44
2016-12-02T10:43:05.409Z,44
2016-12-02T10:44:11.408Z,45
2016-12-02T10:45:17.414Z,45
2016-12-02T10:46:23.415Z,45
2016-12-02T10:47:29.416Z,45
2016-12-02T10:48:35.419Z,45
2016-12-02T10:49:41.418Z,44
2016-12-02T10:50:47.418Z,44
2016-12-02T10:51:53.418Z,43
2016-12-02T10:52:59.419Z,43
2016-12-02T10:54:05.415Z,44
2016-12-02T10:55:11.414Z,44
2016-12-02T10:56:17.425Z,44
2016-12-02T10:57:23.428Z,43
2016-12-02T10:59:40.668Z,42
2016-12-02T11:00:46.666Z,41
2016-12-02T11:01:52.660Z,41
2016-12-02T11:02:58.668Z,41
2016-12-02T11:04:05.285Z,41
2016-12-02T11:05:10.673Z,40
2016-12-02T11:06:16.668Z,40
2016-12-02T11:07:22.670Z,39
2016-12-02T11:08:27.927Z,39
2016-12-02T11:09:33.926Z,40
2016-12-02T11:10:39.924Z,39
2016-12-02T11:11:45.929Z,40
2016-12-02T11:12:51.929Z,40
2016-12-02T11:13:57.927Z,40
2016-12-02T11:15:03.926Z,39
2016-12-02T11:16:09.930Z,39
2016-12-02T11:17:15.928Z,38
2016-12-02T11:18:21.926Z,39
2016-12-02T11:19:27.936Z,39
2016-12-02T11:20:33.941Z,39
2016-12-02T11:21:39.941Z,38
2016-12-02T11:22:45.942Z,39
2016-12-02T11:23:51.940Z,39
2016-12-02T11:24:57.937Z,38
2016-12-02T11:26:03.938Z,38
2016-12-02T11:27:09.942Z,38
2016-12-02T11:28:15.934Z,38
2016-12-02T11:29:28.331Z,38
2016-12-02T11:30:34.332Z,38
2016-12-02T11:31:40.329Z,38
2016-12-02T11:32:46.336Z,38
2016-12-02T11:33:52.340Z,38
2016-12-02T11:34:58.344Z,38
2016-12-02T11:36:11.842Z,38
2016-12-02T11:37:17.895Z,37
2016-12-02T11:38:23.889Z,38
2016-12-02T11:39:29.898Z,37
2016-12-02T11:40:35.901Z,37
2016-12-02T11:41:41.907Z,37
2016-12-02T11:42:47.904Z,37
2016-12-02T11:43:53.903Z,37
2016-12-02T11:44:59.909Z,37
2016-12-02T11:46:05.905Z,37
2016-12-02T11:47:11.905Z,37
2016-12-02T11:48:17.908Z,37
2016-12-02T11:49:23.911Z,35
2016-12-02T11:50:29.906Z,37
2016-12-02T11:51:35.907Z,37
2016-12-02T11:52:41.912Z,36
2016-12-02T11:53:47.911Z,37
2016-12-02T11:54:53.909Z,37
2016-12-02T11:55:59.920Z,37
2016-12-02T11:57:05.926Z,33
2016-12-02T11:58:11.924Z,33
2016-12-02T11:59:17.922Z,35
2016-12-02T12:00:23.923Z,36
2016-12-02T12:01:29.921Z,33
2016-12-02T12:02:35.920Z,33
2016-12-02T12:03:41.921Z,32
2016-12-02T12:04:47.915Z,32
2016-12-02T12:05:53.924Z,36
2016-12-02T12:06:59.925Z,36
2016-12-02T12:08:05.929Z,36
2016-12-02T12:09:11.923Z,29
2016-12-02T12:10:17.929Z,37
2016-12-02T12:11:23.930Z,33
2016-12-02T12:12:29.929Z,37
2016-12-02T12:13:35.932Z,36
2016-12-02T12:14:41.942Z,36
2016-12-02T12:15:47.940Z,36
2016-12-02T12:16:53.940Z,31
2016-12-02T12:17:59.953Z,27
2016-12-02T12:19:05.941Z,26
2016-12-02T12:20:11.940Z,26
2016-12-02T12:21:17.939Z,29
2016-12-02T12:22:23.951Z,29
2016-12-02T12:23:29.947Z,29
2016-12-02T12:24:35.943Z,29
2016-12-02T12:25:41.949Z,26
2016-12-02T12:26:47.950Z,26
2016-12-02T12:27:53.946Z,26
2016-12-02T12:28:59.938Z,26
2016-12-02T12:30:05.946Z,26
2016-12-02T12:31:11.947Z,27
2016-12-02T12:32:17.952Z,29
2016-12-02T12:33:23.948Z,31
2016-12-02T12:34:29.958Z,32
2016-12-02T12:35:35.957Z,32
2016-12-02T12:36:41.961Z,32
2016-12-02T12:37:47.952Z,37
2016-12-02T12:38:53.960Z,37
2016-12-02T12:39:59.960Z,37
2016-12-02T12:41:05.958Z,38
2016-12-02T12:42:11.966Z,39
2016-12-02T12:43:17.969Z,40
2016-12-02T12:44:23.969Z,41
2016-12-02T12:45:29.966Z,41
2016-12-02T12:46:35.972Z,41
2016-12-02T12:48:50.698Z,41
2016-12-02T12:49:56.698Z,42
2016-12-02T12:51:02.693Z,43
2016-12-02T12:52:08.698Z,42
2016-12-02T12:53:14.695Z,42
2016-12-02T12:54:20.703Z,43
2016-12-02T12:55:25.949Z,44
2016-12-02T12:56:31.947Z,44
2016-12-02T12:57:37.950Z,44
2016-12-02T12:58:43.951Z,43
2016-12-02T12:59:49.948Z,43
2016-12-02T13:00:55.952Z,43
2016-12-02T13:02:01.951Z,43
2016-12-02T13:03:07.944Z,44
2016-12-02T13:04:13.944Z,44
2016-12-02T13:05:19.946Z,44
2016-12-02T13:08:43.392Z,44
2016-12-02T13:09:49.390Z,46
2016-12-02T13:10:55.384Z,46
2016-12-02T13:12:01.388Z,46
2016-12-02T13:13:07.385Z,46
2016-12-02T13:14:13.391Z,46
2016-12-02T13:15:19.586Z,46
2016-12-02T13:16:25.585Z,47
2016-12-02T13:17:31.591Z,47
2016-12-02T13:18:37.588Z,48
2016-12-02T13:19:43.585Z,48
2016-12-02T13:20:49.587Z,48
2016-12-02T13:21:55.787Z,48
2016-12-02T13:23:01.784Z,48
2016-12-02T13:24:07.783Z,48
2016-12-02T13:25:13.785Z,49
2016-12-02T13:26:19.779Z,48
2016-12-02T13:27:25.775Z,48
2016-12-02T13:28:31.785Z,49
2016-12-02T13:29:37.787Z,49
2016-12-02T13:30:43.784Z,49
2016-12-02T13:31:49.781Z,50
2016-12-02T13:32:55.772Z,50
2016-12-02T13:34:01.767Z,49
2016-12-02T13:35:07.763Z,51
2016-12-02T13:36:13.762Z,51
2016-12-02T13:37:19.753Z,51
2016-12-02T13:38:25.765Z,50
2016-12-02T13:39:31.764Z,51
2016-12-02T13:40:37.764Z,51
2016-12-02T13:41:43.757Z,51
2016-12-02T13:42:49.761Z,51
2016-12-02T13:43:55.758Z,51
2016-12-02T13:45:01.768Z,51
2016-12-02T13:46:07.761Z,51
2016-12-02T13:47:14.680Z,51
2016-12-02T13:48:20.676Z,51
2016-12-02T13:49:26.679Z,51
2016-12-02T13:50:32.685Z,52
2016-12-02T13:51:38.682Z,51
2016-12-02T13:52:43.932Z,52
2016-12-02T13:53:49.924Z,52
2016-12-02T13:54:56.170Z,52
2016-12-02T13:56:02.160Z,52
2016-12-02T13:57:08.154Z,52
2016-12-02T13:58:14.157Z,52
2016-12-02T13:59:20.153Z,52
2016-12-02T14:00:26.147Z,52
2016-12-02T14:01:32.134Z,52
2016-12-02T14:02:38.138Z,52
2016-12-02T14:03:44.144Z,52
2016-12-02T14:04:56.515Z,52
2016-12-02T14:06:02.513Z,52
2016-12-02T14:07:08.504Z,52
2016-12-02T14:08:14.511Z,52
2016-12-02T14:09:20.588Z,52
2016-12-02T14:10:26.591Z,52
2016-12-02T14:11:32.584Z,52
2016-12-02T14:12:38.582Z,52
2016-12-02T14:13:44.589Z,52
2016-12-02T14:14:50.587Z,52
2016-12-02T14:15:56.584Z,52
2016-12-02T14:17:02.587Z,52
2016-12-02T14:18:08.586Z,52
2016-12-02T14:19:14.578Z,52
2016-12-02T14:20:20.577Z,53
2016-12-02T14:21:26.580Z,52
2016-12-02T14:22:32.575Z,52
2016-12-02T14:23:38.571Z,52
2016-12-02T14:24:44.581Z,53
2016-12-02T14:25:50.582Z,53
2016-12-02T14:26:56.582Z,53
2016-12-02T14:28:02.576Z,53
2016-12-02T14:29:08.578Z,53
2016-12-02T14:30:14.775Z,53
2016-12-02T14:31:20.773Z,53
2016-12-02T14:32:26.779Z,53
2016-12-02T14:33:32.767Z,53
2016-12-02T14:34:38.772Z,53
2016-12-02T14:35:44.770Z,53
2016-12-02T14:36:50.771Z,53
2016-12-02T14:37:56.764Z,53
2016-12-02T14:39:02.773Z,53
2016-12-02T14:41:14.766Z,53
2016-12-02T14:42:20.767Z,53
2016-12-02T14:43:26.781Z,53
2016-12-02T14:44:32.770Z,54
2016-12-02T14:45:38.768Z,54
2016-12-02T14:46:44.776Z,54
2016-12-02T14:48:59.480Z,54
2016-12-02T14:50:05.480Z,54
2016-12-02T14:51:11.474Z,54
2016-12-02T14:52:17.473Z,53
2016-12-02T14:53:23.472Z,53
2016-12-02T14:54:29.498Z,53
2016-12-02T14:55:35.510Z,53
2016-12-02T14:56:41.507Z,53
2016-12-02T14:57:47.509Z,54
2016-12-02T14:58:53.517Z,54
2016-12-02T14:59:59.523Z,54
2016-12-02T15:01:05.539Z,55
2016-12-02T15:02:11.525Z,55
2016-12-02T15:03:17.529Z,55
2016-12-02T15:04:23.527Z,55
2016-12-02T15:05:29.529Z,55
2016-12-02T15:06:35.525Z,55
2016-12-02T15:07:48.995Z,55
2016-12-02T15:08:54.996Z,55
2016-12-02T15:10:01.006Z,55
2016-12-02T15:11:07.040Z,55
2016-12-02T15:12:13.028Z,55
2016-12-02T15:13:19.048Z,55
2016-12-02T15:14:25.053Z,55
2016-12-02T15:15:31.052Z,55
2016-12-02T15:16:37.052Z,55
2016-12-02T15:17:43.050Z,55
2016-12-02T15:18:49.052Z,55
2016-12-02T15:19:55.056Z,55
2016-12-02T15:21:01.052Z,55
2016-12-02T15:22:07.048Z,55
2016-12-02T15:23:13.047Z,55
2016-12-02T15:24:19.048Z,55
2016-12-02T15:25:25.043Z,55
2016-12-02T15:26:31.041Z,55
2016-12-02T15:27:37.052Z,55
2016-12-02T15:28:43.052Z,55
2016-12-02T15:29:49.046Z,55
2016-12-02T15:30:55.044Z,55
2016-12-02T15:32:01.078Z,55
2016-12-02T15:33:07.134Z,55
2016-12-02T15:34:13.135Z,55
2016-12-02T15:35:19.140Z,55
2016-12-02T15:36:25.132Z,55
2016-12-02T15:37:38.600Z,55
2016-12-02T15:38:44.704Z,55
2016-12-02T15:39:50.696Z,55
2016-12-02T15:40:56.699Z,55
2016-12-02T15:42:02.697Z,55
2016-12-02T15:43:08.701Z,55
2016-12-02T15:44:14.709Z,55
2016-12-02T15:45:20.707Z,55
2016-12-02T15:46:26.709Z,55
2016-12-02T15:47:32.706Z,55
2016-12-02T15:48:38.703Z,55
2016-12-02T15:49:44.707Z,55
2016-12-02T15:50:50.709Z,55
2016-12-02T15:51:56.703Z,55
2016-12-02T15:53:02.702Z,55
2016-12-02T15:54:08.704Z,55
2016-12-02T15:55:14.699Z,55
2016-12-02T15:56:20.696Z,56
2016-12-02T15:57:26.707Z,55
2016-12-02T15:58:32.711Z,56
2016-12-02T15:59:38.709Z,56
2016-12-02T16:00:44.703Z,55
2016-12-02T16:01:50.695Z,55
2016-12-02T16:02:56.696Z,55
2016-12-02T16:04:02.693Z,55
2016-12-02T16:05:08.690Z,55